createdAt,value
2023-04-26T00:01:14.970Z,73.04
2023-04-26T00:11:15.619Z,72.56
2023-04-26T00:21:16.349Z,73.34
2023-04-26T00:31:17.120Z,74.02
2023-04-26T00:41:17.894Z,73.44
2023-04-26T00:51:18.914Z,73.38
2023-04-26T01:01:19.242Z,73.13
2023-04-26T01:11:19.893Z,72.88
2023-04-26T01:21:20.560Z,73.39
2023-04-26T01:41:21.859Z,73.01
2023-04-26T01:51:22.530Z,73.80
2023-04-26T02:01:23.625Z,73.34
2023-04-26T02:11:23.775Z,73.55
2023-04-26T02:21:24.371Z,73.55
2023-04-26T02:31:25.340Z,73.60
2023-04-26T02:41:25.604Z,73.67
2023-04-26T02:51:26.338Z,73.70
2023-04-26T03:11:27.668Z,74.17
2023-04-26T03:21:27.837Z,73.20
2023-04-26T03:31:28.724Z,73.13
2023-04-26T03:41:29.525Z,72.68
2023-04-26T03:51:29.549Z,72.19
2023-04-26T04:01:30.354Z,71.89
2023-04-26T04:11:30.585Z,71.71
2023-04-26T04:21:31.109Z,71.79
2023-04-26T04:31:31.698Z,71.93
2023-04-26T04:41:32.170Z,71.49
2023-04-26T04:51:32.758Z,69.96
2023-04-26T05:01:33.369Z,69.63
2023-04-26T05:11:33.923Z,68.72
2023-04-26T05:21:34.812Z,61.51
2023-04-26T05:31:35.348Z,55.98
2023-04-26T05:41:36.411Z,51.10
2023-04-26T05:51:37.216Z,49.05
2023-04-26T06:01:38.304Z,46.65
2023-04-26T06:11:39.481Z,44.61
2023-04-26T06:21:40.721Z,46.31
2023-04-26T06:31:41.916Z,48.08
2023-04-26T06:41:42.937Z,48.63
2023-04-26T06:51:44.080Z,48.37
2023-04-26T07:01:45.029Z,47.75
2023-04-26T07:11:45.909Z,41.08
2023-04-26T07:21:47.342Z,43.17
2023-04-26T07:31:48.411Z,42.50
2023-04-26T07:41:49.467Z,44.24
2023-04-26T07:51:50.500Z,41.70
2023-04-26T08:01:51.752Z,35.50
2023-04-26T08:11:53.388Z,35.88
2023-04-26T08:21:54.869Z,33.16
2023-04-26T08:31:56.374Z,33.38
2023-04-26T08:41:57.550Z,33.21
2023-04-26T08:51:58.784Z,34.10
2023-04-26T09:02:00.189Z,34.59
2023-04-26T09:12:01.424Z,34.75
2023-04-26T09:22:02.685Z,34.06
2023-04-26T09:32:03.715Z,33.55
2023-04-26T09:42:04.952Z,32.86
2023-04-26T09:52:06.267Z,33.17
2023-04-26T10:02:07.854Z,33.53
2023-04-26T10:12:08.683Z,33.83
2023-04-26T10:22:10.362Z,34.19
2023-04-26T10:32:11.032Z,34.00
2023-04-26T10:42:12.255Z,33.38
2023-04-26T10:52:13.506Z,33.83
2023-04-26T11:02:14.721Z,32.21
2023-04-26T11:12:16.118Z,33.12
2023-04-26T11:22:16.767Z,33.02
2023-04-26T11:32:17.730Z,32.31
2023-04-26T11:42:18.785Z,34.21
2023-04-26T11:52:20.041Z,34.00
2023-04-26T12:02:20.976Z,33.54
2023-04-26T12:12:21.887Z,31.86
2023-04-26T12:22:23.041Z,32.07
2023-04-26T12:42:24.878Z,32.93
2023-04-26T12:52:25.865Z,32.62
2023-04-26T13:12:28.063Z,32.47
2023-04-26T13:22:28.802Z,32.91
2023-04-26T13:32:29.841Z,32.59
2023-04-26T13:42:30.789Z,33.87
2023-04-26T13:52:31.985Z,34.79
2023-04-26T14:02:33.004Z,34.07
2023-04-26T14:12:33.746Z,34.43
2023-04-26T14:22:34.697Z,34.99
2023-04-26T14:32:35.890Z,35.23
2023-04-26T14:42:36.785Z,33.68
2023-04-26T14:52:37.387Z,33.44
2023-04-26T15:02:38.434Z,34.92
2023-04-26T15:22:40.338Z,36.14
2023-04-26T15:32:40.924Z,35.64
2023-04-26T15:42:41.672Z,35.72
2023-04-26T15:52:42.505Z,34.79
2023-04-26T16:02:43.505Z,35.41
2023-04-26T16:12:44.169Z,35.04
2023-04-26T16:22:45.408Z,35.21
2023-04-26T16:42:46.750Z,35.23
2023-04-26T16:52:47.546Z,35.69
2023-04-26T17:02:48.767Z,36.44
2023-04-26T17:12:49.267Z,37.76
2023-04-26T17:22:50.110Z,37.46
2023-04-26T17:32:50.860Z,37.55
2023-04-26T17:42:51.769Z,38.13
2023-04-26T17:52:52.385Z,38.17
2023-04-26T18:02:53.537Z,37.63
2023-04-26T18:12:54.270Z,37.23
2023-04-26T18:22:54.921Z,38.08
2023-04-26T18:32:55.932Z,38.24
2023-04-26T19:02:58.498Z,39.15
2023-04-26T19:12:58.911Z,39.59
2023-04-26T19:22:59.795Z,39.32
2023-04-26T19:33:00.419Z,39.61
2023-04-26T19:43:01.258Z,40.33
2023-04-26T19:53:01.821Z,41.60
2023-04-26T20:03:02.731Z,42.26
2023-04-26T20:13:03.761Z,42.83
2023-04-26T20:23:04.116Z,43.92
2023-04-26T20:33:04.752Z,44.76
2023-04-26T20:43:05.144Z,44.86
2023-04-26T20:53:05.855Z,45.31
2023-04-26T21:03:06.513Z,46.98
2023-04-26T21:13:06.862Z,47.82
2023-04-26T21:23:07.393Z,50.16
2023-04-26T21:33:08.016Z,51.92
2023-04-26T21:43:08.493Z,52.99
2023-04-26T21:53:08.983Z,54.61
2023-04-26T22:03:09.609Z,53.90
2023-04-26T22:13:09.954Z,55.64
2023-04-26T22:23:10.562Z,59.35
2023-04-26T22:33:10.987Z,59.56
2023-04-26T22:43:11.260Z,61.41
2023-04-26T22:53:12.118Z,63.27
2023-04-26T23:03:12.191Z,63.24
2023-04-26T23:13:12.722Z,63.07
2023-04-26T23:23:13.006Z,65.40
2023-04-26T23:33:13.538Z,65.53
2023-04-26T23:43:13.878Z,68.45
2023-04-26T23:53:14.148Z,66.26
